Time;durP1;ratioP1;P1;durP2;ratioP2;P2;SDS_P1;SDS_P2;PMS_P1;PMS_P2;Temp;Humidity;BMP_temperature;BMP_pressure;BME280_temperature;BME280_humidity;BME280_pressure;Samples;Min_cycle;Max_cycle;Signal;HPM_P1;HPM_P2
2022/05/06 00:00:40;;;;;;;10.20;6.88;;;;;;;14.67;100.00;101834.13;4906177;29;20040;-75
2022/05/06 00:03:26;;;;;;;11.82;7.68;;;;;;;14.59;100.00;101843.06;4903476;29;20040;-76
2022/05/06 00:06:13;;;;;;;14.27;7.90;;;;;;;14.87;100.00;101843.47;4901655;29;20477;-76
2022/05/06 00:08:59;;;;;;;11.70;7.47;;;;;;;14.64;100.00;101844.72;4902869;29;20048;-76
2022/05/06 00:11:44;;;;;;;12.20;7.53;;;;;;;14.93;100.00;101846.88;4901179;29;20028;-75
2022/05/06 00:14:30;;;;;;;13.73;8.05;;;;;;;14.75;100.00;101853.34;4901032;29;20056;-76
2022/05/06 00:17:16;;;;;;;13.90;8.50;;;;;;;14.47;100.00;101841.47;4902606;29;20059;-76
2022/05/06 00:20:02;;;;;;;14.20;8.82;;;;;;;14.74;100.00;101843.69;4900823;29;20061;-76
2022/05/06 00:22:48;;;;;;;12.30;8.38;;;;;;;14.31;100.00;101839.13;4900339;29;20115;-75
2022/05/06 00:25:34;;;;;;;15.98;8.30;;;;;;;14.55;100.00;101844.03;4901593;29;20366;-75
2022/05/06 00:28:21;;;;;;;13.68;8.48;;;;;;;14.65;100.00;101845.59;4900905;29;20024;-75
2022/05/06 00:31:07;;;;;;;14.77;8.43;;;;;;;14.54;100.00;101847.53;4901253;29;20039;-76
2022/05/06 00:33:53;;;;;;;22.63;8.13;;;;;;;14.82;100.00;101849.69;4900765;29;20105;-76
2022/05/06 00:36:38;;;;;;;17.48;9.00;;;;;;;14.60;100.00;101856.22;4900536;29;20477;-76
2022/05/06 00:39:24;;;;;;;16.13;8.38;;;;;;;14.64;100.00;101859.69;4914445;29;20044;-75
2022/05/06 00:42:10;;;;;;;16.45;8.35;;;;;;;14.76;100.00;101859.50;4900687;29;20191;-76
2022/05/06 00:44:56;;;;;;;16.40;8.77;;;;;;;14.56;100.00;101854.50;4901118;29;20063;-75
2022/05/06 00:47:42;;;;;;;14.82;8.55;;;;;;;14.47;100.00;101853.81;4900885;29;20032;-75
2022/05/06 00:50:27;;;;;;;16.00;8.75;;;;;;;14.60;100.00;101855.34;4900915;29;20032;-76
2022/05/06 00:53:14;;;;;;;18.15;9.07;;;;;;;14.69;100.00;101853.44;4900727;29;20021;-76
2022/05/06 00:55:59;;;;;;;19.60;9.48;;;;;;;14.61;100.00;101850.06;4900532;29;20072;-76
2022/05/06 00:58:45;;;;;;;16.33;9.05;;;;;;;14.73;100.00;101854.25;4900795;29;20340;-75
2022/05/06 01:01:31;;;;;;;19.25;9.73;;;;;;;14.51;100.00;101852.88;4900454;29;20044;-76
2022/05/06 01:04:17;;;;;;;16.52;9.25;;;;;;;14.60;100.00;101848.28;4926403;29;20033;-76
2022/05/06 01:07:03;;;;;;;17.13;9.60;;;;;;;14.51;100.00;101848.44;4913219;29;20029;-76
2022/05/06 01:09:49;;;;;;;16.00;9.20;;;;;;;14.42;100.00;101853.00;4900673;29;20060;-75
2022/05/06 01:12:35;;;;;;;17.55;10.05;;;;;;;14.30;100.00;101848.78;4899650;29;20025;-76
2022/05/06 01:15:26;;;;;;;18.88;11.15;;;;;;;13.87;100.00;101850.22;4913797;29;20537;-75
2022/05/06 01:18:14;;;;;;;21.42;12.95;;;;;;;13.91;100.00;101849.28;4901055;29;20040;-75
2022/05/06 01:21:03;;;;;;;21.88;13.25;;;;;;;13.95;100.00;101852.78;4901338;29;20025;-76
2022/05/06 01:23:48;;;;;;;22.92;12.40;;;;;;;13.87;100.00;101857.28;4900382;29;20369;-75
2022/05/06 01:26:55;;;;;;;26.15;12.75;;;;;;;13.81;100.00;101852.94;4900716;29;20040;-76
2022/05/06 01:29:43;;;;;;;23.38;11.35;;;;;;;13.77;100.00;101851.25;4901080;29;20028;-75
2022/05/06 01:32:30;;;;;;;21.65;12.00;;;;;;;13.94;100.00;101856.28;4913777;29;20064;-75
2022/05/06 01:35:20;;;;;;;21.65;11.82;;;;;;;13.91;100.00;101849.28;4900160;29;20033;-76
2022/05/06 01:38:06;;;;;;;23.30;12.20;;;;;;;14.09;100.00;101846.41;4899348;29;20036;-76
2022/05/06 01:40:57;;;;;;;21.08;12.60;;;;;;;14.34;100.00;101836.41;4900261;29;20040;-75
2022/05/06 01:43:52;;;;;;;22.83;12.93;;;;;;;13.93;100.00;101847.53;4899922;29;20068;-76
2022/05/06 01:46:38;;;;;;;20.80;12.40;;;;;;;14.00;100.00;101837.78;4900752;29;20032;-75
2022/05/06 01:49:26;;;;;;;20.20;12.02;;;;;;;13.90;100.00;101842.28;4900265;29;20119;-75
2022/05/06 01:52:17;;;;;;;20.45;12.63;;;;;;;13.92;100.00;101840.50;4901113;29;20024;-75
2022/05/06 01:55:04;;;;;;;24.55;12.43;;;;;;;14.28;100.00;101837.38;4913414;29;20103;-76
2022/05/06 01:57:49;;;;;;;25.48;15.18;;;;;;;14.28;100.00;101832.09;4900727;29;20111;-76
2022/05/06 02:00:36;;;;;;;27.95;15.00;;;;;;;14.02;100.00;101841.25;4900133;29;20040;-75
2022/05/06 02:06:26;;;;;;;24.25;15.23;;;;;;;14.04;100.00;101837.72;4899536;29;20028;-76
2022/05/06 02:09:12;;;;;;;25.45;16.00;;;;;;;13.91;100.00;101843.16;4899892;29;20411;-76
2022/05/06 02:11:57;;;;;;;23.60;14.00;;;;;;;13.80;100.00;101852.97;4900516;29;20648;-75
2022/05/06 02:14:43;;;;;;;19.75;12.23;;;;;;;13.87;100.00;101844.09;4899257;29;20060;-76
2022/05/06 02:17:29;;;;;;;23.17;11.75;;;;;;;13.95;100.00;101850.13;4900537;29;20043;-75
2022/05/06 02:20:15;;;;;;;21.60;11.73;;;;;;;13.99;100.00;101852.69;4899310;29;20029;-75
2022/05/06 02:23:01;;;;;;;23.83;12.30;;;;;;;13.88;100.00;101845.84;4899347;29;20028;-76
2022/05/06 02:25:47;;;;;;;20.92;13.15;;;;;;;13.84;100.00;101855.56;4899304;29;20343;-76
2022/05/06 02:28:32;;;;;;;21.40;13.75;;;;;;;13.43;100.00;101849.88;4899491;29;20036;-75
2022/05/06 02:34:23;;;;;;;25.25;14.02;;;;;;;13.27;100.00;101853.56;4899836;29;20438;-76
2022/05/06 02:37:08;;;;;;;20.67;12.27;;;;;;;13.30;100.00;101853.53;4899719;29;20029;-76
2022/05/06 02:39:54;;;;;;;23.08;12.38;;;;;;;12.84;100.00;101857.47;4899686;29;20041;-76
2022/05/06 02:42:40;;;;;;;20.75;12.77;;;;;;;13.42;100.00;101860.47;4899285;29;20106;-75
2022/05/06 02:45:25;;;;;;;20.73;11.80;;;;;;;13.48;100.00;101855.09;4899465;29;20119;-75
2022/05/06 02:48:11;;;;;;;15.40;9.07;;;;;;;13.16;100.00;101860.72;4899615;29;20064;-75
2022/05/06 02:50:57;;;;;;;20.65;9.48;;;;;;;13.26;100.00;101853.63;4899870;29;20417;-75
2022/05/06 02:53:43;;;;;;;16.88;9.50;;;;;;;13.20;100.00;101857.16;4899647;29;20084;-75
2022/05/06 02:56:29;;;;;;;15.73;8.40;;;;;;;13.08;100.00;101853.78;4898365;29;20020;-75
2022/05/06 02:59:14;;;;;;;15.32;7.60;;;;;;;13.12;100.00;101855.50;4924737;29;20041;-76
2022/05/06 03:02:00;;;;;;;12.45;6.65;;;;;;;13.23;100.00;101851.84;4910885;29;20040;-76
2022/05/06 03:04:46;;;;;;;12.68;6.40;;;;;;;12.99;100.00;101852.09;4899115;29;20043;-76
2022/05/06 03:07:32;;;;;;;10.90;5.93;;;;;;;13.05;100.00;101854.69;4898394;29;20033;-76
2022/05/06 03:10:17;;;;;;;9.75;5.50;;;;;;;13.06;100.00;101866.94;4898504;29;20331;-77
2022/05/06 03:13:03;;;;;;;13.40;5.68;;;;;;;13.26;100.00;101866.78;4898016;29;20039;-75
2022/05/06 03:15:49;;;;;;;9.18;5.40;;;;;;;12.83;100.00;101866.22;4898618;29;20028;-76
2022/05/06 03:18:35;;;;;;;8.93;5.38;;;;;;;12.68;100.00;101861.13;4898699;29;20036;-75
2022/05/06 03:21:21;;;;;;;8.13;4.72;;;;;;;12.72;100.00;101870.72;4898355;29;20051;-75
2022/05/06 03:24:07;;;;;;;12.70;5.35;;;;;;;12.79;100.00;101869.81;4898534;29;20462;-76
2022/05/06 03:26:54;;;;;;;9.57;6.15;;;;;;;12.95;100.00;101866.13;4897965;29;20044;-76
2022/05/06 03:29:40;;;;;;;10.30;6.10;;;;;;;12.77;100.00;101866.28;4898538;29;20024;-76
2022/05/06 03:32:27;;;;;;;14.07;6.35;;;;;;;12.91;100.00;101869.66;4898087;29;20032;-75
2022/05/06 03:35:13;;;;;;;12.20;6.25;;;;;;;12.71;100.00;101863.72;4898950;29;20075;-75
2022/05/06 03:37:59;;;;;;;10.55;6.43;;;;;;;12.66;100.00;101862.03;4906385;29;20032;-75
2022/05/06 03:40:45;;;;;;;8.90;5.47;;;;;;;12.67;100.00;101869.91;4898420;29;20044;-76
2022/05/06 03:43:30;;;;;;;8.25;5.32;;;;;;;12.81;100.00;101865.38;4899012;29;20032;-75
2022/05/06 03:46:16;;;;;;;10.05;5.10;;;;;;;12.76;100.00;101871.56;4898869;29;20029;-75
2022/05/06 03:49:02;;;;;;;9.40;4.47;;;;;;;13.02;100.00;101878.38;4900392;29;20047;-76
2022/05/06 03:51:48;;;;;;;7.55;4.97;;;;;;;13.06;100.00;101884.50;4905162;29;20103;-76
2022/05/06 03:54:33;;;;;;;8.27;5.00;;;;;;;13.34;100.00;101886.00;4916994;29;20069;-75
2022/05/06 03:57:19;;;;;;;8.30;4.65;;;;;;;13.24;100.00;101894.84;4906315;29;20040;-76
2022/05/06 04:00:05;;;;;;;9.38;4.78;;;;;;;13.46;100.00;101901.63;4912036;29;20038;-74
2022/05/06 04:02:51;;;;;;;6.50;4.78;;;;;;;13.52;100.00;101901.56;4913424;29;20024;-75
2022/05/06 04:05:37;;;;;;;9.73;5.07;;;;;;;13.73;100.00;101902.22;4915111;29;20032;-76
2022/05/06 04:08:23;;;;;;;9.82;6.00;;;;;;;13.76;100.00;101903.94;4912763;29;20032;-76
2022/05/06 04:11:13;;;;;;;9.18;5.53;;;;;;;13.78;100.00;101908.28;4903519;29;20036;-75
2022/05/06 04:13:58;;;;;;;11.10;5.13;;;;;;;14.01;100.00;101908.00;4922656;29;20108;-75
2022/05/06 04:16:44;;;;;;;12.52;4.90;;;;;;;14.22;100.00;101907.75;4909175;29;20036;-76
2022/05/06 04:19:30;;;;;;;14.15;6.07;;;;;;;14.12;100.00;101919.31;4901078;29;20040;-76
2022/05/06 04:25:21;;;;;;;9.13;5.43;;;;;;;14.58;100.00;101908.13;4901314;29;20040;-75
2022/05/06 04:28:07;;;;;;;12.93;7.65;;;;;;;14.41;100.00;101920.69;4929817;29;20047;-75
2022/05/06 04:30:53;;;;;;;13.35;8.18;;;;;;;13.87;100.00;101924.00;4909363;29;20033;-75
2022/05/06 04:33:40;;;;;;;13.65;9.27;;;;;;;13.48;100.00;101920.94;4908492;29;20032;-75
2022/05/06 04:36:26;;;;;;;16.08;9.80;;;;;;;13.62;100.00;101924.28;4906470;29;20037;-75
2022/05/06 04:39:11;;;;;;;16.73;9.18;;;;;;;13.84;100.00;101917.91;4903958;29;20101;-76
2022/05/06 04:41:57;;;;;;;16.52;9.88;;;;;;;13.67;100.00;101918.06;4907266;29;20028;-76
2022/05/06 04:44:44;;;;;;;14.57;10.00;;;;;;;13.69;100.00;101920.69;4909103;29;20024;-78
2022/05/06 04:47:29;;;;;;;15.45;10.38;;;;;;;13.83;100.00;101922.28;4910061;29;20040;-75
2022/05/06 04:50:15;;;;;;;16.33;9.93;;;;;;;13.78;100.00;101921.47;4911421;29;20056;-74
2022/05/06 04:53:01;;;;;;;17.67;11.20;;;;;;;13.62;100.00;101919.00;4908467;29;20043;-74
2022/05/06 04:55:48;;;;;;;22.85;11.50;;;;;;;13.77;100.00;101927.63;4909794;29;20032;-75
2022/05/06 04:58:34;;;;;;;18.40;10.38;;;;;;;13.91;100.00;101930.97;4922598;29;20032;-77
2022/05/06 05:01:20;;;;;;;17.30;10.75;;;;;;;14.17;100.00;101925.38;4913150;29;20048;-76
2022/05/06 05:04:06;;;;;;;14.38;10.20;;;;;;;14.07;100.00;101935.16;4907357;29;20063;-75
2022/05/06 05:06:52;;;;;;;15.55;9.50;;;;;;;13.97;100.00;101938.81;4914289;29;20482;-75
2022/05/06 05:09:37;;;;;;;16.20;9.93;;;;;;;14.04;100.00;101932.59;4915222;29;20036;-74
2022/05/06 05:12:24;;;;;;;16.88;9.95;;;;;;;14.25;100.00;101929.72;4914310;29;20053;-75
2022/05/06 05:15:11;;;;;;;17.35;9.77;;;;;;;14.30;100.00;101925.25;4914924;29;20064;-76
2022/05/06 05:17:58;;;;;;;17.42;9.77;;;;;;;14.22;100.00;101923.59;4926244;29;20096;-75
2022/05/06 05:20:43;;;;;;;21.60;9.77;;;;;;;14.72;100.00;101926.41;4913438;29;20032;-76
2022/05/06 05:23:31;;;;;;;16.50;9.38;;;;;;;14.82;100.00;101923.59;4916003;29;20043;-75
2022/05/06 05:26:16;;;;;;;13.30;7.95;;;;;;;15.04;100.00;101933.78;4917169;29;20025;-76
2022/05/06 05:29:04;;;;;;;16.17;9.27;;;;;;;15.11;100.00;101940.72;4910546;29;20063;-75
2022/05/06 05:31:51;;;;;;;15.73;9.40;;;;;;;15.68;100.00;101951.19;4902326;29;20339;-76
2022/05/06 05:34:37;;;;;;;14.23;8.02;;;;;;;15.57;100.00;101954.88;4914575;29;20085;-76
2022/05/06 05:37:22;;;;;;;18.58;7.80;;;;;;;15.77;100.00;101950.09;4913886;29;20085;-76
2022/05/06 05:40:10;;;;;;;13.55;8.57;;;;;;;15.75;100.00;101954.56;4902059;29;20373;-76
2022/05/06 05:42:56;;;;;;;10.85;7.00;;;;;;;15.78;100.00;101951.84;4900804;29;20029;-76
2022/05/06 05:48:46;;;;;;;9.98;7.43;;;;;;;16.09;100.00;101951.22;4899887;29;20037;-76
2022/05/06 05:51:33;;;;;;;12.45;7.57;;;;;;;15.72;100.00;101952.84;4902952;29;20442;-76
2022/05/06 05:54:18;;;;;;;16.17;8.23;;;;;;;15.96;100.00;101952.38;4899548;29;20037;-76
2022/05/06 05:57:05;;;;;;;16.33;8.10;;;;;;;16.08;100.00;101956.53;4900556;29;20469;-77
2022/05/06 05:59:51;;;;;;;12.65;7.78;;;;;;;15.74;100.00;101966.91;4913057;29;20028;-75
2022/05/06 06:02:37;;;;;;;12.57;7.25;;;;;;;16.07;100.00;101970.69;4913104;29;20048;-76
2022/05/06 06:05:23;;;;;;;12.80;8.02;;;;;;;15.96;100.00;101967.34;4899382;29;20453;-77
2022/05/06 06:08:09;;;;;;;12.18;7.72;;;;;;;16.15;100.00;101969.59;4899843;29;20040;-76
2022/05/06 06:10:55;;;;;;;17.38;7.68;;;;;;;16.33;100.00;101966.59;4899309;29;20028;-76
2022/05/06 06:13:40;;;;;;;14.77;8.90;;;;;;;16.42;100.00;101966.41;4899351;29;20108;-76
2022/05/06 06:16:26;;;;;;;15.23;8.23;;;;;;;16.73;100.00;101961.31;4899894;29;20389;-74
2022/05/06 06:19:12;;;;;;;14.23;7.68;;;;;;;17.03;100.00;101968.53;4925116;29;20028;-75
2022/05/06 06:21:58;;;;;;;13.30;8.32;;;;;;;17.22;100.00;101970.69;4899088;29;20040;-76
2022/05/06 06:24:44;;;;;;;13.52;8.15;;;;;;;17.11;100.00;101955.97;4899016;29;20443;-76
2022/05/06 06:27:31;;;;;;;17.25;8.30;;;;;;;17.14;100.00;101958.53;4899151;29;20047;-76
2022/05/06 06:30:17;;;;;;;11.85;7.20;;;;;;;17.36;100.00;101955.31;4898638;29;20178;-76
2022/05/06 06:33:03;;;;;;;13.02;7.25;;;;;;;17.45;100.00;101957.75;4898841;29;20032;-75
2022/05/06 06:35:49;;;;;;;15.23;8.32;;;;;;;17.55;100.00;101959.28;4898599;29;20032;-76
2022/05/06 06:38:35;;;;;;;13.80;7.85;;;;;;;17.63;100.00;101956.41;4898784;29;20469;-76
2022/05/06 06:41:21;;;;;;;15.55;7.50;;;;;;;17.48;100.00;101952.38;4899701;29;20067;-76
2022/05/06 06:44:07;;;;;;;12.88;6.90;;;;;;;17.57;100.00;101956.59;4899026;29;20040;-76
2022/05/06 06:46:55;;;;;;;8.98;6.20;;;;;;;17.70;100.00;101948.28;4897823;29;20032;-75
2022/05/06 06:49:41;;;;;;;13.43;5.95;;;;;;;17.75;100.00;101954.31;4899724;29;20036;-76
2022/05/06 06:52:26;;;;;;;12.77;5.80;;;;;;;17.69;100.00;101949.16;4899364;29;20039;-76
2022/05/06 06:55:12;;;;;;;13.82;6.10;;;;;;;18.04;100.00;101951.72;4898226;29;20430;-75
2022/05/06 06:57:58;;;;;;;12.48;6.25;;;;;;;18.14;98.91;101950.56;4898747;29;20117;-76
2022/05/06 07:00:44;;;;;;;10.90;5.80;;;;;;;18.66;97.43;101944.56;4898486;29;20025;-76
2022/05/06 07:03:30;;;;;;;12.27;6.28;;;;;;;18.37;99.15;101941.94;4898393;29;20036;-75
2022/05/06 07:12:24;;;;;;;17.08;6.82;;;;;;;19.16;94.41;101952.66;4897850;29;20103;-76
2022/05/06 07:15:10;;;;;;;9.82;7.03;;;;;;;18.92;95.23;101958.75;4898457;29;20101;-75
2022/05/06 07:17:56;;;;;;;12.15;7.47;;;;;;;19.28;92.70;101962.03;4898542;29;20115;-74
2022/05/06 07:20:42;;;;;;;13.95;7.82;;;;;;;19.40;90.87;101961.63;4898075;29;20032;-76
2022/05/06 07:23:28;;;;;;;13.50;7.60;;;;;;;18.91;91.72;101964.13;4911333;29;20044;-77
2022/05/06 07:26:14;;;;;;;14.75;7.47;;;;;;;19.13;91.63;101962.53;4898521;29;20051;-75
2022/05/06 07:29:00;;;;;;;11.38;7.80;;;;;;;19.57;87.79;101972.53;4898563;29;20423;-77
2022/05/06 07:31:46;;;;;;;15.27;8.30;;;;;;;19.63;88.13;101967.00;4898052;29;20036;-76
2022/05/06 07:34:32;;;;;;;12.25;7.00;;;;;;;19.50;89.28;101971.03;4902005;29;20123;-76
2022/05/06 07:37:17;;;;;;;12.02;6.45;;;;;;;19.95;84.04;101963.19;4901196;29;20032;-76
2022/05/06 07:40:04;;;;;;;10.93;6.95;;;;;;;19.94;84.25;101967.69;4900953;29;20028;-76
2022/05/06 07:42:51;;;;;;;12.73;6.85;;;;;;;20.38;82.82;101958.94;4901723;29;20062;-76
2022/05/06 07:45:38;;;;;;;9.70;6.70;;;;;;;20.78;79.82;101964.44;4901463;29;20032;-76
2022/05/06 07:48:24;;;;;;;13.02;6.88;;;;;;;20.17;82.63;101965.06;4901521;29;20466;-76
2022/05/06 07:51:09;;;;;;;11.15;7.03;;;;;;;20.62;79.49;101965.09;4901532;29;20033;-76
2022/05/06 07:53:56;;;;;;;13.23;7.43;;;;;;;21.28;75.07;101955.28;4901178;29;20025;-75
2022/05/06 07:56:42;;;;;;;13.63;6.63;;;;;;;21.45;73.85;101959.88;4927313;29;20060;-76
2022/05/06 07:59:28;;;;;;;9.75;6.03;;;;;;;21.43;71.81;101957.31;4901679;29;20028;-77
2022/05/06 08:05:22;;;;;;;10.50;5.57;;;;;;;22.75;65.07;101958.41;4900877;29;20115;-78
2022/05/06 08:08:08;;;;;;;7.80;5.60;;;;;;;21.99;65.27;101969.06;4901052;29;20025;-78
2022/05/06 08:10:54;;;;;;;11.23;5.57;;;;;;;22.69;62.14;101970.25;4901589;29;20071;-77
2022/05/06 08:13:40;;;;;;;8.23;5.57;;;;;;;23.11;62.46;101960.13;4900706;29;20116;-76
2022/05/06 08:16:25;;;;;;;12.95;7.03;;;;;;;22.93;61.39;101966.41;4915231;29;20040;-76
2022/05/06 08:19:16;;;;;;;8.50;5.03;;;;;;;23.27;58.39;101971.00;4901175;29;20300;-77
2022/05/06 08:22:01;;;;;;;13.25;5.38;;;;;;;23.03;56.56;101966.81;4901190;29;20084;-76
2022/05/06 08:24:48;;;;;;;10.15;5.03;;;;;;;23.79;54.21;101969.19;4901316;29;20044;-76
2022/05/06 08:27:42;;;;;;;12.50;4.75;;;;;;;23.77;51.09;101963.03;4913972;29;20039;-76
2022/05/06 08:30:27;;;;;;;8.60;4.10;;;;;;;23.86;49.37;101973.28;4900939;29;20115;-76
2022/05/06 08:33:14;;;;;;;9.45;4.18;;;;;;;24.17;49.00;101978.75;4912999;29;20020;-76
2022/05/06 08:36:00;;;;;;;8.15;4.35;;;;;;;24.89;47.30;101970.25;4901019;29;20024;-76
2022/05/06 08:38:48;;;;;;;55.58;19.75;;;;;;;24.20;45.60;101975.91;4901151;29;20051;-76
2022/05/06 08:41:38;;;;;;;11.00;5.03;;;;;;;24.12;45.07;101973.66;4914034;29;20075;-77
2022/05/06 08:50:55;;;;;;;6.05;2.80;;;;;;;23.28;44.19;101954.84;4900320;29;20424;-77
2022/05/06 08:53:41;;;;;;;6.50;3.38;;;;;;;23.75;43.30;101956.91;4899770;29;20029;-76
2022/05/06 08:56:32;;;;;;;5.30;3.03;;;;;;;23.84;43.38;101953.75;4900471;29;20119;-76
2022/05/06 08:59:18;;;;;;;8.25;3.10;;;;;;;24.06;41.73;101952.56;4900926;29;20039;-76
2022/05/06 09:02:06;;;;;;;5.90;2.95;;;;;;;24.03;41.68;101950.03;4900138;29;20033;-75
2022/05/06 09:04:52;;;;;;;7.55;3.25;;;;;;;24.20;41.08;101939.28;4900545;29;20029;-76
2022/05/06 09:07:37;;;;;;;8.68;3.53;;;;;;;23.81;41.58;101932.47;4899841;29;20039;-77
2022/05/06 09:10:24;;;;;;;12.65;4.22;;;;;;;23.72;42.34;101949.03;4899933;29;20056;-77
2022/05/06 09:13:10;;;;;;;4.93;3.13;;;;;;;24.14;41.52;101953.00;4899570;29;20578;-76
2022/05/06 09:19:25;;;;;;;9.18;3.40;;;;;;;23.60;41.32;101950.56;4899526;29;20103;-77
2022/05/06 09:22:13;;;;;;;9.05;3.20;;;;;;;24.10;40.34;101953.28;4900684;29;20033;-76
2022/05/06 09:24:59;;;;;;;12.07;2.83;;;;;;;24.09;40.21;101946.16;4899040;29;20060;-76
2022/05/06 09:27:53;;;;;;;6.55;2.85;;;;;;;24.12;36.62;101946.88;4900459;29;20046;-76
2022/05/06 09:30:39;;;;;;;6.15;2.38;;;;;;;23.60;38.63;101947.00;4912072;29;20159;-75
2022/05/06 09:33:25;;;;;;;5.40;2.80;;;;;;;23.99;39.09;101939.59;4899810;29;20051;-75
2022/05/06 09:36:41;;;;;;;4.88;2.35;;;;;;;24.82;38.66;101938.47;4899648;29;20033;-77
2022/05/06 09:39:27;;;;;;;7.30;2.78;;;;;;;24.29;38.84;101937.91;4895848;29;20423;-76
2022/05/06 09:42:14;;;;;;;7.03;2.42;;;;;;;23.56;36.56;101932.91;4899218;29;20036;-75
2022/05/06 09:45:01;;;;;;;5.65;3.70;;;;;;;23.58;37.20;101932.84;4899213;29;20028;-75
2022/05/06 09:47:58;;;;;;;6.90;2.80;;;;;;;23.42;38.23;101928.28;4899488;29;20032;-76
2022/05/06 09:50:46;;;;;;;7.53;3.03;;;;;;;24.41;36.34;101926.53;4925115;29;20024;-75
2022/05/06 09:53:36;;;;;;;7.60;3.10;;;;;;;24.06;37.28;101933.81;4899199;29;20115;-77
2022/05/06 09:56:24;;;;;;;5.95;2.72;;;;;;;22.89;36.51;101926.53;4899705;29;20028;-76
2022/05/06 09:59:10;;;;;;;8.73;3.00;;;;;;;23.40;37.59;101924.78;4899426;29;20036;-76
2022/05/06 10:01:55;;;;;;;7.40;2.72;;;;;;;24.21;36.55;101921.38;4898974;29;20025;-75
2022/05/06 10:04:43;;;;;;;7.18;2.97;;;;;;;23.94;37.29;101929.09;4899024;29;20033;-76
2022/05/06 10:07:29;;;;;;;5.60;2.90;;;;;;;24.76;37.16;101918.28;4898681;29;20033;-75
2022/05/06 10:10:22;;;;;;;13.75;2.90;;;;;;;24.05;37.05;101924.06;4912432;29;20096;-76
2022/05/06 10:13:16;;;;;;;5.88;2.70;;;;;;;24.14;36.78;101925.38;4902131;29;20134;-76
2022/05/06 10:16:02;;;;;;;6.38;3.10;;;;;;;23.97;36.50;101912.88;4909430;29;20102;-75
2022/05/06 10:18:47;;;;;;;4.53;2.72;;;;;;;23.71;36.70;101915.19;4901366;29;20371;-77
2022/05/06 10:21:47;;;;;;;4.65;2.88;;;;;;;23.63;36.87;101915.59;4899234;29;20028;-76
2022/05/06 10:24:49;;;;;;;5.30;3.50;;;;;;;24.02;36.80;101921.53;4897894;29;20044;-75
2022/05/06 10:34:14;;;;;;;5.93;3.03;;;;;;;24.07;38.13;101907.91;4879360;29;20025;-76
2022/05/06 10:37:03;;;;;;;4.20;2.78;;;;;;;24.12;38.36;101913.88;4898789;29;20028;-76
2022/05/06 10:39:49;;;;;;;6.45;3.17;;;;;;;24.04;37.60;101905.38;4899179;29;20056;-75
2022/05/06 10:42:36;;;;;;;6.05;3.20;;;;;;;24.47;37.52;101894.88;4899464;29;20449;-75
2022/05/06 10:45:26;;;;;;;4.40;2.65;;;;;;;23.70;38.09;101898.25;4912504;29;20033;-76
2022/05/06 10:48:22;;;;;;;5.43;2.92;;;;;;;24.10;37.83;101894.34;4898957;29;20506;-75
2022/05/06 10:51:34;;;;;;;8.68;2.97;;;;;;;23.81;37.58;101886.97;4914484;29;20032;-76
2022/05/06 10:54:21;;;;;;;9.13;3.30;;;;;;;24.20;38.33;101885.72;4899019;29;20091;-77
2022/05/06 10:57:08;;;;;;;6.60;3.08;;;;;;;24.10;37.81;101879.13;4925383;29;20028;-76
2022/05/06 11:00:01;;;;;;;3.67;2.90;;;;;;;24.61;37.17;101878.94;4898994;29;20399;-76
2022/05/06 11:02:46;;;;;;;4.03;2.90;;;;;;;24.71;37.21;101872.06;4911574;29;20069;-75
2022/05/06 11:05:33;;;;;;;6.10;3.00;;;;;;;24.64;37.30;101869.84;4898494;29;20115;-77
2022/05/06 11:08:32;;;;;;;8.20;3.10;;;;;;;23.78;37.71;101876.47;4900004;29;20037;-76
2022/05/06 11:11:19;;;;;;;6.93;2.92;;;;;;;24.12;37.88;101874.56;4903938;29;20028;-77
2022/05/06 11:14:17;;;;;;;7.60;2.95;;;;;;;24.08;37.76;101874.81;4903180;29;20136;-75
2022/05/06 11:17:16;;;;;;;8.43;3.15;;;;;;;24.41;37.52;101857.72;4902401;29;20032;-77
2022/05/06 11:20:17;;;;;;;6.30;2.58;;;;;;;24.49;38.31;101866.19;4900595;29;20099;-76
2022/05/06 11:23:06;;;;;;;10.30;2.83;;;;;;;24.50;37.75;101856.31;4902742;29;20111;-76
2022/05/06 11:25:52;;;;;;;6.32;3.28;;;;;;;24.91;36.55;101861.06;4901877;29;20406;-76
2022/05/06 11:28:38;;;;;;;6.03;2.75;;;;;;;23.74;37.00;101848.13;4902865;29;20395;-76
2022/05/06 11:31:23;;;;;;;5.90;2.65;;;;;;;23.96;37.07;101848.72;4902076;29;20037;-76
2022/05/06 11:34:10;;;;;;;5.95;2.53;;;;;;;24.29;36.62;101839.66;4901981;29;20446;-75
2022/05/06 11:36:58;;;;;;;6.20;2.83;;;;;;;24.48;36.15;101834.13;4914955;29;20028;-77
2022/05/06 11:39:43;;;;;;;5.90;2.90;;;;;;;24.22;36.27;101832.91;4902249;29;20028;-75
2022/05/06 11:42:36;;;;;;;6.50;3.00;;;;;;;24.56;36.32;101824.72;4914221;29;20047;-76
2022/05/06 11:48:43;;;;;;;4.93;3.55;;;;;;;24.49;34.26;101827.81;4901156;29;20043;-77
2022/05/06 11:51:38;;;;;;;4.18;2.78;;;;;;;24.04;36.05;101825.06;4901750;29;20040;-76
2022/05/06 11:54:27;;;;;;;6.35;3.15;;;;;;;23.68;36.39;101825.22;4901359;29;20047;-76
2022/05/06 11:57:13;;;;;;;4.10;2.60;;;;;;;23.91;35.86;101829.31;4902041;29;20095;-76
2022/05/06 11:59:59;;;;;;;7.45;3.08;;;;;;;23.60;35.38;101826.56;4901450;29;20032;-76
2022/05/06 12:02:50;;;;;;;5.18;2.63;;;;;;;23.67;36.14;101822.63;4900633;29;20043;-76
2022/05/06 12:05:38;;;;;;;9.57;2.58;;;;;;;23.90;36.05;101824.94;4900751;29;20032;-76
2022/05/06 12:08:29;;;;;;;5.18;2.85;;;;;;;24.27;34.51;101819.28;4901064;29;20024;-77
2022/05/06 12:11:24;;;;;;;5.60;2.42;;;;;;;24.26;34.07;101817.56;4901482;29;20044;-76
2022/05/06 12:14:18;;;;;;;6.25;2.50;;;;;;;24.42;34.56;101821.06;4901039;29;20057;-76
2022/05/06 12:17:15;;;;;;;5.03;3.03;;;;;;;24.64;34.22;101814.44;4901743;29;20363;-76
2022/05/06 12:20:00;;;;;;;6.43;2.65;;;;;;;24.48;33.80;101799.28;4904003;29;20040;-76
2022/05/06 12:22:55;;;;;;;6.63;2.90;;;;;;;24.40;33.31;101796.19;4900989;29;20096;-76
2022/05/06 12:25:41;;;;;;;8.35;2.53;;;;;;;24.42;34.59;101803.19;4901229;29;20363;-76
2022/05/06 12:28:31;;;;;;;4.95;2.70;;;;;;;24.33;35.37;101808.19;4900656;29;20115;-76
2022/05/06 12:31:25;;;;;;;3.78;2.60;;;;;;;23.42;34.48;101803.50;4899664;29;20029;-75
2022/05/06 12:34:11;;;;;;;4.68;2.78;;;;;;;23.24;34.38;101802.66;4914191;29;20029;-76
2022/05/06 12:37:11;;;;;;;12.18;2.90;;;;;;;23.30;34.30;101805.88;4899653;29;20028;-77
2022/05/06 12:40:01;;;;;;;6.63;3.00;;;;;;;23.13;34.54;101800.50;4900976;29;20043;-76
2022/05/06 12:43:26;;;;;;;5.10;2.40;;;;;;;24.10;35.02;101788.06;4900659;29;20127;-76
2022/05/06 12:46:30;;;;;;;4.82;2.80;;;;;;;24.65;34.01;101796.53;4854698;29;20111;-75
2022/05/06 12:52:24;;;;;;;4.28;2.42;;;;;;;23.25;34.50;101785.66;4901332;29;20033;-77
2022/05/06 12:55:10;;;;;;;6.28;2.83;;;;;;;23.57;34.34;101778.56;4900960;29;20051;-77
2022/05/06 12:57:59;;;;;;;4.97;2.55;;;;;;;22.96;34.48;101791.63;4900928;29;20032;-77
2022/05/06 13:00:45;;;;;;;16.05;10.45;;;;;;;22.96;34.77;101789.84;4900673;29;20537;-76
2022/05/06 13:03:31;;;;;;;6.68;2.85;;;;;;;23.60;34.57;101786.44;4901037;29;20414;-78
2022/05/06 13:06:17;;;;;;;5.07;2.60;;;;;;;23.67;34.38;101779.81;4900847;29;20032;-75
2022/05/06 13:09:02;;;;;;;6.32;2.95;;;;;;;23.98;33.73;101777.22;4901255;29;20042;-76
2022/05/06 13:11:48;;;;;;;8.70;2.80;;;;;;;23.87;34.31;101764.34;4900186;29;20101;-76
2022/05/06 13:14:34;;;;;;;7.28;2.88;;;;;;;24.58;33.59;101770.97;4898991;29;20053;-76
2022/05/06 13:17:20;;;;;;;3.50;2.60;;;;;;;23.74;34.23;101757.13;4900582;29;20182;-77
2022/05/06 13:20:07;;;;;;;10.57;3.30;;;;;;;23.76;34.92;101772.16;4899694;29;20029;-75
2022/05/06 13:22:52;;;;;;;6.50;3.10;;;;;;;23.76;33.91;101769.47;4900386;29;20096;-76
2022/05/06 13:25:38;;;;;;;8.57;2.83;;;;;;;23.38;33.98;101782.25;4900096;29;20347;-76
2022/05/06 13:28:33;;;;;;;5.90;2.67;;;;;;;23.27;34.22;101770.41;4901069;29;20043;-76
2022/05/06 13:31:19;;;;;;;6.10;2.85;;;;;;;23.84;33.54;101761.88;4898639;29;20079;-76